Time;durP1;ratioP1;P1;durP2;ratioP2;P2;SDS_P1;SDS_P2;PMS_P1;PMS_P2;Temp;Humidity;BMP_temperature;BMP_pressure;BME280_temperature;BME280_humidity;BME280_pressure;Samples;Min_cycle;Max_cycle;Signal;HPM_P1;HPM_P2
2022/01/09 00:00:08;;;;;;;1.00;0.55;;;;;;;5.98;94.57;99104.16;4973842;28;98820;-41
2022/01/09 00:02:33;;;;;;;3.13;1.02;;;;;;;5.94;94.56;99103.53;4972753;28;96742;-41
2022/01/09 00:04:58;;;;;;;2.63;0.60;;;;;;;5.94;94.42;99102.69;4971777;28;121888;-41
2022/01/09 00:07:24;;;;;;;0.60;0.57;;;;;;;5.91;94.67;99109.09;4974087;28;97947;-41
2022/01/09 00:09:49;;;;;;;1.92;0.82;;;;;;;5.85;94.45;99105.97;4973246;28;111407;-41
2022/01/09 00:12:14;;;;;;;2.55;1.15;;;;;;;5.92;94.42;99128.78;4973887;28;96410;-41
2022/01/09 00:14:40;;;;;;;2.70;0.75;;;;;;;5.91;94.25;99122.53;4973458;28;121939;-41
2022/01/09 00:17:05;;;;;;;2.60;1.08;;;;;;;5.91;94.21;99130.59;4972750;28;126609;-41
2022/01/09 00:19:30;;;;;;;6.38;0.70;;;;;;;5.86;94.04;99132.72;4973712;28;97890;-41
2022/01/09 00:21:56;;;;;;;3.50;0.55;;;;;;;5.87;93.88;99144.34;4972665;28;121912;-41
2022/01/09 00:24:21;;;;;;;2.65;1.13;;;;;;;5.75;93.55;99132.63;4973769;28;96692;-41
2022/01/09 00:26:46;;;;;;;8.10;1.35;;;;;;;5.88;93.24;99159.50;4973142;28;110327;-41
2022/01/09 00:29:12;;;;;;;1.27;0.55;;;;;;;5.88;93.00;99149.59;4972711;28;121766;-41
2022/01/09 00:31:37;;;;;;;15.93;1.23;;;;;;;5.90;93.07;99174.53;4971146;28;114426;-42
2022/01/09 00:34:02;;;;;;;3.92;1.00;;;;;;;5.72;93.06;99154.31;4973968;28;96809;-41
2022/01/09 00:36:28;;;;;;;6.93;1.52;;;;;;;5.93;93.25;99189.59;4972878;28;116474;-41
2022/01/09 00:38:53;;;;;;;2.83;0.43;;;;;;;5.87;93.38;99193.56;4973623;28;99121;-41
2022/01/09 00:41:18;;;;;;;4.43;1.05;;;;;;;5.81;93.18;99187.75;4973529;28;96640;-41
2022/01/09 00:43:44;;;;;;;1.88;0.77;;;;;;;5.81;93.06;99188.59;4972747;28;121536;-41
2022/01/09 00:46:10;;;;;;;20.23;1.75;;;;;;;5.82;93.17;99195.72;4972809;28;97877;-41
2022/01/09 00:48:35;;;;;;;8.27;1.20;;;;;;;5.79;93.05;99189.69;4973341;28;98128;-41
2022/01/09 00:51:01;;;;;;;7.97;1.75;;;;;;;5.90;92.81;99216.69;4973426;28;96678;-41
2022/01/09 00:53:26;;;;;;;5.68;1.25;;;;;;;5.78;92.70;99199.56;4973150;28;97443;-41
2022/01/09 00:55:51;;;;;;;3.72;0.98;;;;;;;5.83;92.79;99204.63;4972290;28;122877;-41
2022/01/09 00:58:17;;;;;;;16.77;1.35;;;;;;;5.79;92.15;99203.13;4973114;28;113008;-42
2022/01/09 01:00:42;;;;;;;3.15;0.85;;;;;;;5.80;92.35;99205.72;4973199;28;102310;-41
2022/01/09 01:03:07;;;;;;;3.22;1.25;;;;;;;5.79;92.40;99216.56;4972677;28;109561;-41
2022/01/09 01:05:33;;;;;;;7.78;1.27;;;;;;;5.78;92.41;99213.00;4972601;28;97872;-41
2022/01/09 01:07:58;;;;;;;4.18;1.13;;;;;;;5.87;92.24;99235.72;4973159;28;97889;-41
2022/01/09 01:10:24;;;;;;;4.22;1.20;;;;;;;5.90;92.34;99240.88;4971463;28;115767;-41
2022/01/09 01:12:49;;;;;;;3.58;1.48;;;;;;;5.87;91.54;99247.31;4973229;28;96715;-41
2022/01/09 01:15:15;;;;;;;6.22;1.65;;;;;;;5.79;92.06;99238.91;4973093;28;97818;-41
2022/01/09 01:17:40;;;;;;;3.10;0.80;;;;;;;5.72;91.59;99235.78;4973410;28;96997;-41
2022/01/09 01:20:06;;;;;;;7.35;0.65;;;;;;;5.74;91.58;99246.41;4973133;28;96676;-41
2022/01/09 01:22:32;;;;;;;11.68;0.70;;;;;;;5.72;91.66;99249.22;4971477;28;96803;-41
2022/01/09 01:24:58;;;;;;;10.25;1.02;;;;;;;5.83;91.43;99269.13;4972500;28;97851;-41
2022/01/09 01:27:24;;;;;;;7.78;1.33;;;;;;;5.84;91.31;99286.94;4973163;28;97344;-41
2022/01/09 01:29:49;;;;;;;5.15;1.15;;;;;;;5.83;91.14;99288.78;4972768;28;96592;-41
2022/01/09 01:32:14;;;;;;;2.63;1.35;;;;;;;5.75;91.20;99281.25;4971326;28;121411;-41
2022/01/09 01:34:40;;;;;;;6.55;0.68;;;;;;;5.77;91.10;99299.06;4972182;28;97799;-41
2022/01/09 01:37:05;;;;;;;2.00;0.65;;;;;;;5.71;90.61;99290.47;4971753;28;123829;-41
2022/01/09 01:39:30;;;;;;;2.78;1.20;;;;;;;5.71;90.97;99294.97;4972970;28;96796;-42
2022/01/09 01:41:56;;;;;;;5.60;1.30;;;;;;;5.68;90.40;99292.50;4972499;28;96753;-41
2022/01/09 01:44:21;;;;;;;4.40;1.02;;;;;;;5.70;90.38;99306.69;4972502;28;97824;-41
2022/01/09 01:46:47;;;;;;;3.05;0.82;;;;;;;5.68;89.96;99304.09;4972469;28;99315;-41
2022/01/09 01:49:13;;;;;;;6.18;0.63;;;;;;;5.68;90.79;99330.97;4972523;28;96554;-41
2022/01/09 01:51:41;;;;;;;6.30;0.52;;;;;;;5.72;89.81;99335.19;4973018;28;96622;-41
2022/01/09 01:54:09;;;;;;;1.25;0.98;;;;;;;5.74;90.01;99344.00;4970885;28;100923;-41
2022/01/09 01:56:35;;;;;;;3.47;0.77;;;;;;;5.73;89.67;99361.06;4970552;28;100653;-41
2022/01/09 01:59:00;;;;;;;1.73;1.10;;;;;;;5.64;89.81;99350.06;4970914;28;96904;-41
2022/01/09 02:01:25;;;;;;;5.30;0.68;;;;;;;5.74;90.30;99375.34;4972529;28;96559;-41
2022/01/09 02:03:51;;;;;;;2.20;0.73;;;;;;;5.74;89.86;99387.00;4972353;28;97400;-41
2022/01/09 02:06:17;;;;;;;4.55;1.05;;;;;;;5.73;89.60;99371.81;4970355;28;111679;-41
2022/01/09 02:08:43;;;;;;;13.65;1.00;;;;;;;5.72;89.67;99371.91;4970833;28;96626;-41
2022/01/09 02:11:12;;;;;;;1.40;0.75;;;;;;;5.61;89.61;99364.56;4970733;28;96850;-41
2022/01/09 02:13:45;;;;;;;1.60;0.85;;;;;;;5.64;89.76;99385.00;4970803;28;100981;-42
2022/01/09 02:16:18;;;;;;;1.83;0.73;;;;;;;5.57;89.79;99380.97;4974633;28;99027;-41
2022/01/09 02:18:45;;;;;;;5.47;0.77;;;;;;;5.65;89.38;99384.91;4975673;28;96710;-41
2022/01/09 02:21:12;;;;;;;3.97;0.60;;;;;;;5.56;89.74;99388.19;4975478;28;96743;-42
2022/01/09 02:23:40;;;;;;;11.25;1.98;;;;;;;5.74;89.18;99410.28;4973618;28;100677;-41
2022/01/09 02:26:05;;;;;;;7.78;0.90;;;;;;;5.63;89.49;99412.81;4975469;28;97283;-41
2022/01/09 02:28:31;;;;;;;2.42;0.90;;;;;;;5.62;88.66;99416.47;4975967;28;97252;-42
2022/01/09 02:30:56;;;;;;;0.43;0.43;;;;;;;5.72;89.27;99420.25;4975133;28;110244;-42
2022/01/09 02:33:21;;;;;;;1.77;0.80;;;;;;;5.73;88.54;99430.06;4975227;28;97992;-41
2022/01/09 02:35:52;;;;;;;3.70;1.08;;;;;;;5.70;88.83;99431.13;4975336;28;97793;-41
2022/01/09 02:38:18;;;;;;;1.13;0.73;;;;;;;5.74;88.61;99439.84;4974118;28;96632;-41
2022/01/09 02:40:43;;;;;;;3.75;0.47;;;;;;;5.64;88.70;99444.09;4975854;28;96699;-41
2022/01/09 02:43:09;;;;;;;16.40;0.82;;;;;;;5.73;88.19;99465.00;4975475;28;97403;-41
2022/01/09 02:45:34;;;;;;;3.47;0.75;;;;;;;5.58;87.68;99442.66;4975287;28;97876;-41
2022/01/09 02:48:02;;;;;;;2.92;0.50;;;;;;;5.58;87.99;99450.72;4974707;28;96722;-42
2022/01/09 02:50:36;;;;;;;3.60;0.63;;;;;;;5.66;87.99;99475.25;4973467;28;96954;-41
2022/01/09 02:53:12;;;;;;;0.52;0.40;;;;;;;5.68;87.39;99483.22;4974869;28;99155;-41
2022/01/09 02:55:38;;;;;;;0.80;0.57;;;;;;;5.59;87.44;99467.69;4973748;28;100685;-41
2022/01/09 02:58:04;;;;;;;1.00;0.50;;;;;;;5.66;87.26;99501.25;4973687;28;96691;-41
2022/01/09 03:00:36;;;;;;;4.53;1.40;;;;;;;5.62;87.26;99492.53;4975071;28;107145;-41
2022/01/09 03:03:02;;;;;;;1.38;0.40;;;;;;;5.49;86.66;99487.06;4974869;28;99085;-41
2022/01/09 03:05:29;;;;;;;6.60;0.73;;;;;;;5.59;87.07;99507.97;4974059;28;99041;-41
2022/01/09 03:07:55;;;;;;;1.20;0.47;;;;;;;5.45;87.30;99498.94;4973591;28;96526;-41
2022/01/09 03:10:21;;;;;;;1.77;0.45;;;;;;;5.53;87.13;99519.97;4975095;28;96790;-42
2022/01/09 03:12:48;;;;;;;6.65;0.93;;;;;;;5.40;86.83;99501.06;4973217;28;97199;-41
2022/01/09 03:15:14;;;;;;;0.93;0.40;;;;;;;5.46;87.19;99530.25;4973240;28;101358;-41
2022/01/09 03:17:40;;;;;;;2.25;0.47;;;;;;;5.36;87.17;99515.63;4974865;28;96448;-41
2022/01/09 03:20:12;;;;;;;5.18;0.73;;;;;;;5.35;87.21;99524.66;4973574;28;97028;-42
2022/01/09 03:22:37;;;;;;;0.20;0.20;;;;;;;5.44;86.40;99558.16;4974741;28;98954;-41
2022/01/09 03:25:03;;;;;;;0.77;0.60;;;;;;;5.41;86.52;99561.00;4974751;28;98038;-41
2022/01/09 03:27:29;;;;;;;18.35;1.23;;;;;;;5.40;86.69;99560.13;4972459;28;96583;-41
2022/01/09 03:29:54;;;;;;;17.35;1.40;;;;;;;5.37;87.11;99560.34;4974360;28;101081;-42
2022/01/09 03:32:19;;;;;;;0.85;0.52;;;;;;;5.26;86.46;99549.38;4974036;28;97800;-42
2022/01/09 03:34:45;;;;;;;0.65;0.35;;;;;;;5.34;86.74;99560.53;4974457;28;103342;-41
2022/01/09 03:37:10;;;;;;;0.68;0.45;;;;;;;5.36;86.64;99577.38;4972732;28;96593;-41
2022/01/09 03:39:36;;;;;;;0.52;0.50;;;;;;;5.32;86.70;99582.09;4974007;28;113520;-41
2022/01/09 03:42:01;;;;;;;11.35;1.42;;;;;;;5.27;86.87;99577.97;4974439;28;97785;-41
2022/01/09 03:44:27;;;;;;;6.20;0.50;;;;;;;5.25;86.48;99571.81;4974322;28;97358;-41
2022/01/09 03:46:53;;;;;;;2.67;0.73;;;;;;;5.35;86.54;99580.19;4972998;28;96658;-41
2022/01/09 03:49:18;;;;;;;4.57;0.75;;;;;;;5.23;86.41;99574.59;4974454;28;96704;-42
2022/01/09 03:51:45;;;;;;;3.17;0.28;;;;;;;5.33;85.73;99604.44;4974051;28;97444;-42
2022/01/09 03:54:10;;;;;;;0.90;0.40;;;;;;;5.25;85.52;99588.78;4974290;28;99205;-41
2022/01/09 03:56:36;;;;;;;3.50;0.47;;;;;;;5.21;86.04;99581.88;4973929;28;99247;-41
2022/01/09 03:59:01;;;;;;;4.68;1.15;;;;;;;5.13;86.01;99583.28;4973236;28;120654;-41
2022/01/09 04:01:27;;;;;;;2.15;0.85;;;;;;;5.10;85.20;99581.63;4973464;28;100599;-42
2022/01/09 04:03:53;;;;;;;0.15;0.08;;;;;;;5.23;85.40;99614.00;4972711;28;100483;-41
2022/01/09 04:06:19;;;;;;;0.70;0.38;;;;;;;5.17;85.50;99608.97;4972613;28;96519;-41
2022/01/09 04:08:44;;;;;;;1.77;0.80;;;;;;;5.08;85.50;99605.03;4972583;28;96532;-42
2022/01/09 04:11:12;;;;;;;3.40;0.77;;;;;;;5.13;85.84;99610.13;4973813;28;97929;-41
2022/01/09 04:13:38;;;;;;;10.80;0.80;;;;;;;5.21;85.54;99621.28;4973719;28;97670;-41
2022/01/09 04:16:04;;;;;;;0.88;0.52;;;;;;;5.21;85.65;99618.59;4974177;28;96590;-42
2022/01/09 04:18:30;;;;;;;2.22;0.52;;;;;;;5.19;86.04;99641.97;4974355;28;96701;-41
2022/01/09 04:20:56;;;;;;;4.93;0.45;;;;;;;5.11;85.11;99634.38;4973841;28;97864;-42
2022/01/09 04:23:21;;;;;;;7.28;0.65;;;;;;;5.01;85.51;99633.19;4973731;28;97795;-41
2022/01/09 04:25:47;;;;;;;12.20;1.02;;;;;;;5.10;85.59;99648.72;4973143;28;99630;-41
2022/01/09 04:28:13;;;;;;;11.88;0.90;;;;;;;4.96;85.88;99625.41;4973632;28;96739;-41
2022/01/09 04:30:39;;;;;;;0.20;0.20;;;;;;;5.02;85.54;99635.75;4972090;28;101467;-41
2022/01/09 04:33:04;;;;;;;1.33;0.75;;;;;;;5.06;85.52;99648.06;4973268;28;96775;-41
2022/01/09 04:35:30;;;;;;;0.00;0.00;;;;;;;5.07;85.70;99655.13;4973702;28;96423;-41
2022/01/09 04:37:55;;;;;;;1.15;0.55;;;;;;;4.98;85.24;99647.66;4973667;28;96717;-42
2022/01/09 04:40:21;;;;;;;3.08;0.80;;;;;;;5.02;85.68;99665.28;4973416;28;99558;-41
2022/01/09 04:45:18;;;;;;;0.90;0.40;;;;;;;4.90;85.03;99650.75;4973451;28;96609;-41
2022/01/09 04:47:47;;;;;;;6.22;0.63;;;;;;;4.91;85.32;99665.06;4973480;28;96731;-41
2022/01/09 04:50:18;;;;;;;0.80;0.65;;;;;;;4.95;86.19;99673.78;4971378;28;100855;-41
2022/01/09 04:52:45;;;;;;;2.00;0.63;;;;;;;5.00;85.57;99691.34;4971610;28;98952;-42
2022/01/09 04:55:10;;;;;;;2.25;0.32;;;;;;;4.86;85.70;99676.06;4955592;28;96607;-41
2022/01/09 04:57:36;;;;;;;0.68;0.47;;;;;;;4.98;86.22;99693.28;4973233;28;96815;-41
2022/01/09 05:00:03;;;;;;;0.57;0.45;;;;;;;5.01;85.50;99705.66;4973512;28;97337;-41
2022/01/09 05:02:29;;;;;;;5.85;0.75;;;;;;;5.00;86.04;99720.00;4972952;28;99702;-41
2022/01/09 05:04:54;;;;;;;5.85;1.13;;;;;;;4.87;86.03;99704.59;4972392;28;118377;-42
2022/01/09 05:07:19;;;;;;;0.30;0.20;;;;;;;4.97;85.65;99721.03;4972205;28;96840;-42
2022/01/09 05:09:45;;;;;;;3.47;1.10;;;;;;;5.00;85.25;99728.03;4972707;28;98872;-41
2022/01/09 05:12:10;;;;;;;8.82;0.68;;;;;;;4.91;85.70;99716.03;4972458;28;111566;-41
2022/01/09 05:14:35;;;;;;;2.03;0.57;;;;;;;4.95;85.83;99731.00;4972764;28;96516;-41
2022/01/09 05:17:00;;;;;;;3.42;0.55;;;;;;;5.03;85.95;99747.53;4973245;28;96690;-41
2022/01/09 05:19:31;;;;;;;1.08;0.30;;;;;;;4.91;85.92;99732.13;4971995;28;124869;-41
2022/01/09 05:21:57;;;;;;;10.18;0.73;;;;;;;5.02;86.07;99743.09;4973028;28;97275;-42
2022/01/09 05:24:23;;;;;;;1.60;0.70;;;;;;;5.04;85.79;99761.81;4971650;28;96550;-42
2022/01/09 05:26:48;;;;;;;0.13;0.13;;;;;;;4.94;85.19;99733.78;4972814;28;96801;-41
2022/01/09 05:29:13;;;;;;;5.22;1.50;;;;;;;4.99;85.53;99745.97;4972614;28;98877;-41
2022/01/09 05:31:39;;;;;;;7.13;0.28;;;;;;;5.08;85.80;99761.56;4972739;28;97927;-41
2022/01/09 05:34:05;;;;;;;0.35;0.30;;;;;;;4.99;85.66;99753.16;4972759;28;96575;-41
2022/01/09 05:36:31;;;;;;;14.35;1.40;;;;;;;4.99;85.08;99756.72;4973073;28;96796;-41
2022/01/09 05:38:57;;;;;;;1.85;0.52;;;;;;;4.93;85.28;99745.44;4972299;28;97842;-41
2022/01/09 05:41:22;;;;;;;0.45;0.30;;;;;;;5.10;85.20;99774.88;4972649;28;97940;-41
2022/01/09 05:43:48;;;;;;;0.98;0.45;;;;;;;5.13;85.43;99781.91;4972790;28;96521;-42
2022/01/09 05:46:13;;;;;;;0.52;0.43;;;;;;;5.11;85.20;99780.16;4972537;28;96765;-41
2022/01/09 05:48:39;;;;;;;1.33;0.63;;;;;;;4.99;84.92;99761.22;4972598;28;97454;-41
2022/01/09 05:51:05;;;;;;;0.25;0.22;;;;;;;4.99;84.63;99766.59;4970808;28;126604;-41
2022/01/09 05:53:30;;;;;;;1.38;0.60;;;;;;;5.10;85.14;99796.34;4972329;28;96542;-41
2022/01/09 05:55:56;;;;;;;0.85;0.55;;;;;;;4.99;84.83;99778.19;4972114;28;105049;-42
2022/01/09 05:58:21;;;;;;;1.80;0.25;;;;;;;4.96;85.35;99773.00;4971726;28;120183;-41
2022/01/09 06:00:46;;;;;;;0.63;0.30;;;;;;;4.96;85.46;99778.34;4972453;28;99731;-41
2022/01/09 06:03:12;;;;;;;1.23;0.40;;;;;;;4.99;85.32;99791.59;4972101;28;96552;-42
2022/01/09 06:05:37;;;;;;;5.63;0.70;;;;;;;5.08;85.28;99806.31;4971724;28;121480;-41
2022/01/09 06:08:02;;;;;;;0.95;0.40;;;;;;;5.10;85.24;99813.34;4972289;28;99434;-41
2022/01/09 06:10:28;;;;;;;2.08;0.43;;;;;;;5.08;85.25;99817.91;4972321;28;97408;-42
2022/01/09 06:12:53;;;;;;;8.50;0.43;;;;;;;5.10;85.73;99815.13;4972558;28;96670;-41
2022/01/09 06:15:18;;;;;;;1.65;0.65;;;;;;;4.97;85.81;99793.50;4971752;28;107785;-41
2022/01/09 06:17:44;;;;;;;10.65;0.77;;;;;;;5.07;85.99;99813.50;4972219;28;98012;-41
2022/01/09 06:20:12;;;;;;;0.50;0.30;;;;;;;4.99;85.42;99788.91;4971090;28;98960;-42
2022/01/09 06:22:38;;;;;;;2.10;0.68;;;;;;;5.10;85.55;99829.44;4970754;28;97311;-41
2022/01/09 06:25:04;;;;;;;0.63;0.30;;;;;;;5.02;85.65;99818.25;4972233;28;96804;-42
2022/01/09 06:27:30;;;;;;;0.70;0.45;;;;;;;5.03;85.23;99827.16;4971453;28;99309;-41
2022/01/09 06:29:55;;;;;;;5.53;0.85;;;;;;;5.07;85.69;99837.66;4972115;28;97344;-41
2022/01/09 06:32:20;;;;;;;0.40;0.30;;;;;;;5.10;84.88;99841.97;4970980;28;111717;-41
2022/01/09 06:34:46;;;;;;;0.68;0.47;;;;;;;5.13;85.18;99851.69;4972573;28;96765;-41
2022/01/09 06:37:12;;;;;;;0.55;0.40;;;;;;;5.00;84.86;99830.88;4970648;28;99519;-42
2022/01/09 06:39:38;;;;;;;5.85;0.77;;;;;;;5.06;84.97;99852.03;4971902;28;97858;-41
2022/01/09 06:42:04;;;;;;;3.35;0.63;;;;;;;5.11;84.46;99852.63;4970669;28;96626;-42
2022/01/09 06:44:30;;;;;;;4.82;0.88;;;;;;;5.11;85.02;99851.78;4972455;28;96711;-42
2022/01/09 06:46:55;;;;;;;4.47;1.02;;;;;;;5.15;84.74;99863.19;4971873;28;97581;-42
2022/01/09 06:49:20;;;;;;;0.35;0.30;;;;;;;5.14;85.12;99869.53;4970849;28;126773;-42
2022/01/09 06:51:45;;;;;;;2.40;0.77;;;;;;;5.10;84.85;99868.81;4970789;28;113261;-41
2022/01/09 06:54:13;;;;;;;12.13;0.25;;;;;;;5.16;84.84;99883.75;4971636;28;96825;-41
2022/01/09 06:56:39;;;;;;;3.40;0.52;;;;;;;5.07;84.97;99880.59;4970061;28;100808;-41
2022/01/09 06:59:04;;;;;;;9.32;1.30;;;;;;;5.15;84.81;99890.94;4970324;28;101488;-42
2022/01/09 07:01:29;;;;;;;1.02;0.47;;;;;;;5.18;85.19;99898.81;4972143;28;118002;-41
2022/01/09 07:03:54;;;;;;;1.30;0.55;;;;;;;5.08;84.77;99884.16;4974200;28;120454;-41
2022/01/09 07:06:20;;;;;;;0.28;0.15;;;;;;;5.14;85.01;99904.41;4975121;28;99301;-42
2022/01/09 07:08:45;;;;;;;0.20;0.20;;;;;;;5.11;85.34;99895.59;4973832;28;128030;-41
2022/01/09 07:11:10;;;;;;;3.00;1.05;;;;;;;5.02;85.08;99874.59;4974970;28;96500;-41
2022/01/09 07:13:36;;;;;;;1.23;0.45;;;;;;;5.17;85.17;99904.25;4974815;28;101866;-41
2022/01/09 07:16:01;;;;;;;2.00;0.98;;;;;;;5.16;84.82;99900.69;4974267;28;99315;-41
2022/01/09 07:18:26;;;;;;;0.50;0.38;;;;;;;5.00;83.92;99889.91;4974757;28;97584;-41
2022/01/09 07:20:52;;;;;;;3.83;0.45;;;;;;;5.01;84.90;99885.44;4974984;28;96678;-41
2022/01/09 07:23:17;;;;;;;5.28;0.90;;;;;;;5.04;84.33;99902.22;4974764;28;96769;-41
2022/01/09 07:25:43;;;;;;;1.02;0.63;;;;;;;5.05;84.03;99909.34;4973228;28;100811;-42
2022/01/09 07:28:08;;;;;;;1.45;0.70;;;;;;;4.99;84.90;99898.94;4973120;28;98979;-41
2022/01/09 07:30:33;;;;;;;1.02;0.60;;;;;;;5.08;84.83;99913.69;4974783;28;96624;-41
2022/01/09 07:32:59;;;;;;;3.13;0.70;;;;;;;4.96;84.96;99904.47;4974822;28;96738;-42
2022/01/09 07:35:25;;;;;;;0.70;0.43;;;;;;;5.13;84.29;99935.78;4973684;28;123940;-41
2022/01/09 07:37:51;;;;;;;6.40;0.20;;;;;;;5.09;84.62;99928.81;4972924;28;101127;-42
2022/01/09 07:40:16;;;;;;;0.10;0.10;;;;;;;5.09;84.29;99936.88;4974236;28;96419;-42
2022/01/09 07:42:42;;;;;;;0.90;0.70;;;;;;;5.06;84.55;99931.69;4974622;28;96726;-41
2022/01/09 07:45:08;;;;;;;0.52;0.20;;;;;;;4.98;84.72;99924.06;4974288;28;99597;-42
2022/01/09 07:47:37;;;;;;;1.63;0.55;;;;;;;4.98;84.51;99936.56;4974309;28;97226;-41
2022/01/09 07:50:09;;;;;;;1.00;0.65;;;;;;;5.08;84.33;99960.19;4974247;28;96594;-41
2022/01/09 07:52:35;;;;;;;0.50;0.43;;;;;;;4.94;84.70;99943.06;4974392;28;96692;-41
2022/01/09 07:55:02;;;;;;;0.90;0.43;;;;;;;4.94;84.20;99933.19;4972922;28;99234;-41
2022/01/09 07:57:27;;;;;;;2.75;1.60;;;;;;;5.05;84.59;99963.03;4974237;28;99722;-41
2022/01/09 07:59:53;;;;;;;0.05;0.05;;;;;;;5.06;84.91;99962.06;4972246;28;113380;-41
2022/01/09 08:02:18;;;;;;;1.15;0.47;;;;;;;5.07;84.24;99965.63;4974442;28;97923;-41
2022/01/09 08:04:43;;;;;;;1.88;0.35;;;;;;;5.03;85.19;99954.19;4972620;28;125012;-41
2022/01/09 08:07:09;;;;;;;1.50;0.90;;;;;;;4.94;84.62;99953.81;4973834;28;97441;-41
2022/01/09 08:09:34;;;;;;;0.65;0.45;;;;;;;4.93;84.82;99957.44;4972963;28;122337;-42
2022/01/09 08:11:59;;;;;;;7.20;0.85;;;;;;;5.05;85.18;99978.25;4973017;28;122068;-41
2022/01/09 08:14:24;;;;;;;3.80;0.60;;;;;;;5.01;84.84;99977.56;4972385;28;126426;-41
2022/01/09 08:16:50;;;;;;;0.52;0.32;;;;;;;5.00;nan;99983.84;4973873;28;97786;-42
2022/01/09 08:19:15;;;;;;;3.40;0.47;;;;;;;4.98;84.75;99990.25;4973397;28;110433;-41
2022/01/09 08:21:40;;;;;;;1.35;0.50;;;;;;;5.03;84.56;99994.44;4972177;28;104594;-42
2022/01/09 08:24:06;;;;;;;0.90;0.40;;;;;;;5.04;84.37;100004.22;4973679;28;97968;-42
2022/01/09 08:26:31;;;;;;;0.68;0.38;;;;;;;5.07;84.65;99998.69;4973691;28;97853;-42
2022/01/09 08:28:56;;;;;;;4.75;0.98;;;;;;;5.10;84.57;100008.38;4971512;28;113781;-41
2022/01/09 08:31:22;;;;;;;0.68;0.43;;;;;;;5.11;84.10;100010.13;4972407;28;122326;-42
2022/01/09 08:33:48;;;;;;;2.30;0.35;;;;;;;5.01;84.79;99993.66;4972149;28;100926;-41
2022/01/09 08:36:13;;;;;;;6.72;0.52;;;;;;;5.08;85.00;100010.31;4973000;28;99441;-41
2022/01/09 08:38:40;;;;;;;3.42;0.47;;;;;;;5.15;85.17;100032.31;4972189;28;96549;-41
2022/01/09 08:41:05;;;;;;;0.93;0.57;;;;;;;5.14;85.26;100031.44;4972209;28;96549;-42
2022/01/09 08:43:34;;;;;;;0.85;0.30;;;;;;;5.07;85.50;100035.41;4973556;28;97988;-41
2022/01/09 08:45:59;;;;;;;3.05;0.47;;;;;;;5.02;85.58;100024.03;4973795;28;97797;-42
2022/01/09 08:48:25;;;;;;;0.30;0.28;;;;;;;5.00;85.49;100010.69;4973544;28;96551;-41
2022/01/09 08:50:50;;;;;;;1.20;0.63;;;;;;;5.01;85.83;100014.25;4971660;28;96808;-41
2022/01/09 08:53:15;;;;;;;0.25;0.15;;;;;;;5.05;85.74;100024.75;4972422;28;98472;-41
2022/01/09 08:55:41;;;;;;;3.53;0.73;;;;;;;5.13;86.31;100039.59;4973366;28;97767;-41
2022/01/09 08:58:06;;;;;;;11.13;1.80;;;;;;;5.03;85.99;100034.69;4971810;28;97413;-42
2022/01/09 09:00:32;;;;;;;4.82;0.50;;;;;;;5.04;85.55;100035.56;4973363;28;96767;-42
2022/01/09 09:02:57;;;;;;;2.40;0.65;;;;;;;5.17;85.30;100052.75;4972859;28;115225;-41
2022/01/09 09:05:22;;;;;;;7.07;0.28;;;;;;;5.20;85.28;100057.13;4972997;28;97755;-41
2022/01/09 09:07:48;;;;;;;0.45;0.40;;;;;;;5.21;84.96;100064.22;4973189;28;96524;-41
2022/01/09 09:10:13;;;;;;;1.90;0.22;;;;;;;5.08;85.21;100031.78;4973584;28;96888;-42
2022/01/09 09:12:39;;;;;;;0.70;0.32;;;;;;;5.16;84.48;100052.84;4972950;28;97890;-41
2022/01/09 09:15:05;;;;;;;1.42;0.73;;;;;;;5.11;84.89;100043.22;4973073;28;97356;-42
2022/01/09 09:17:31;;;;;;;4.07;0.32;;;;;;;5.27;84.73;100077.34;4971214;28;96935;-41
2022/01/09 09:19:57;;;;;;;3.08;1.02;;;;;;;5.27;84.61;100083.56;4972957;28;96779;-41
2022/01/09 09:22:23;;;;;;;1.15;0.38;;;;;;;5.10;84.62;100076.38;4972927;28;97904;-41
2022/01/09 09:24:49;;;;;;;1.08;0.25;;;;;;;5.13;84.92;100080.72;4972117;28;97473;-41
2022/01/09 09:27:14;;;;;;;1.40;0.35;;;;;;;5.04;85.44;100071.31;4973364;28;96583;-42
2022/01/09 09:29:40;;;;;;;2.30;0.82;;;;;;;5.15;85.59;100104.78;4972984;28;96769;-41
2022/01/09 09:32:05;;;;;;;2.25;0.60;;;;;;;5.05;85.54;100086.50;4971926;28;99024;-41
2022/01/09 09:34:31;;;;;;;1.08;0.57;;;;;;;4.94;86.16;100066.50;4972763;28;97376;-41
2022/01/09 09:36:56;;;;;;;0.43;0.17;;;;;;;5.05;85.89;100082.91;4972913;28;96517;-41
2022/01/09 09:39:21;;;;;;;0.50;0.32;;;;;;;5.08;85.92;100097.06;4972307;28;107955;-41
2022/01/09 09:41:48;;;;;;;1.25;0.75;;;;;;;5.21;85.82;100123.28;4972148;28;97929;-42
2022/01/09 09:44:13;;;;;;;1.83;0.65;;;;;;;5.25;85.91;100124.88;4972416;28;98626;-42
2022/01/09 09:46:39;;;;;;;0.30;0.17;;;;;;;5.22;86.02;100128.56;4972824;28;96592;-41
2022/01/09 09:49:05;;;;;;;1.98;0.25;;;;;;;5.13;85.81;100107.56;4972539;28;96921;-41
2022/01/09 09:51:31;;;;;;;5.18;0.75;;;;;;;5.23;85.74;100132.97;4970999;28;101046;-41
2022/01/09 09:53:57;;;;;;;0.30;0.30;;;;;;;5.17;85.25;100113.63;4970677;28;99371;-41
2022/01/09 09:56:23;;;;;;;0.55;0.30;;;;;;;5.09;85.47;100100.59;4972457;28;96565;-42
2022/01/09 09:58:51;;;;;;;2.53;0.43;;;;;;;5.05;85.30;100093.66;4972717;28;96784;-42
2022/01/09 10:01:31;;;;;;;5.43;0.22;;;;;;;5.18;85.00;100121.63;4972279;28;97367;-42
2022/01/09 10:04:03;;;;;;;1.50;0.43;;;;;;;5.31;85.33;100137.97;4972478;28;98111;-42
2022/01/09 10:06:45;;;;;;;0.70;0.55;;;;;;;5.38;85.58;100154.63;4972102;28;96603;-41
2022/01/09 10:09:16;;;;;;;0.75;0.20;;;;;;;5.33;85.34;100144.13;4972533;28;96573;-42
2022/01/09 10:11:56;;;;;;;0.80;0.45;;;;;;;5.25;84.70;100122.19;4970605;28;100832;-42
2022/01/09 10:14:33;;;;;;;0.15;0.15;;;;;;;5.40;85.47;100153.59;4970899;28;101477;-42
2022/01/09 10:17:21;;;;;;;2.97;0.35;;;;;;;5.27;85.23;100122.97;4971013;28;96685;-42
2022/01/09 10:19:57;;;;;;;3.72;0.45;;;;;;;5.50;85.11;100154.00;4970832;28;97367;-41
2022/01/09 10:22:25;;;;;;;0.35;0.35;;;;;;;5.49;85.11;100161.19;4972001;28;97902;-41
2022/01/09 10:24:50;;;;;;;4.25;0.82;;;;;;;5.38;85.02;100143.88;4972156;28;99282;-41
2022/01/09 10:27:31;;;;;;;4.65;0.63;;;;;;;5.47;84.85;100170.28;4972265;28;96473;-41
2022/01/09 10:29:57;;;;;;;5.18;0.32;;;;;;;5.43;84.97;100161.50;4971959;28;96803;-42
2022/01/09 10:32:28;;;;;;;0.52;0.32;;;;;;;5.41;85.43;100165.19;4971170;28;97985;-41
2022/01/09 10:35:11;;;;;;;2.58;0.32;;;;;;;5.38;85.01;100168.91;4970207;28;101142;-41
2022/01/09 10:37:39;;;;;;;0.32;0.13;;;;;;;5.23;85.08;100151.78;4974708;28;96483;-41
2022/01/09 10:40:08;;;;;;;0.30;0.22;;;;;;;5.26;84.93;100158.81;4975540;28;96740;-41
2022/01/09 10:42:33;;;;;;;0.35;0.35;;;;;;;5.29;85.15;100159.53;4975287;28;97903;-41
2022/01/09 10:45:21;;;;;;;2.72;0.63;;;;;;;5.41;85.17;100178.63;4975490;28;97964;-41
2022/01/09 10:47:48;;;;;;;2.45;0.47;;;;;;;5.44;85.36;100176.69;4973866;28;96667;-42
2022/01/09 10:50:28;;;;;;;6.35;0.80;;;;;;;5.47;85.30;100171.13;4974255;28;96820;-42
2022/01/09 10:53:17;;;;;;;0.52;0.25;;;;;;;5.56;85.40;100187.75;4973310;28;101645;-42
2022/01/09 10:55:43;;;;;;;0.73;0.22;;;;;;;5.48;85.07;100162.16;4973395;28;99100;-42
2022/01/09 10:58:16;;;;;;;0.77;0.68;;;;;;;5.51;85.00;100164.66;4973345;28;97461;-41
2022/01/09 11:00:41;;;;;;;1.50;0.47;;;;;;;5.62;84.94;100176.66;4975467;28;96745;-42
2022/01/09 11:03:06;;;;;;;8.13;0.90;;;;;;;5.66;85.22;100178.25;4975055;28;103339;-42
2022/01/09 11:05:35;;;;;;;1.60;0.70;;;;;;;5.73;84.88;100182.34;4974145;28;127235;-42
2022/01/09 11:08:01;;;;;;;1.80;0.28;;;;;;;5.69;84.47;100156.59;4974973;28;96747;-41
2022/01/09 11:10:28;;;;;;;1.20;0.70;;;;;;;6.09;83.95;100187.63;4973226;28;96612;-42
2022/01/09 11:12:58;;;;;;;17.48;1.10;;;;;;;6.13;83.16;100162.31;4974861;28;98032;-42
2022/01/09 11:15:24;;;;;;;0.60;0.43;;;;;;;6.63;82.50;100186.53;4975126;28;99591;-42
2022/01/09 11:17:50;;;;;;;5.50;0.88;;;;;;;6.88;81.17;100186.00;4975027;28;96585;-41
2022/01/09 11:20:17;;;;;;;1.98;0.70;;;;;;;6.93;80.80;100178.50;4973487;28;96772;-42
2022/01/09 11:22:43;;;;;;;9.88;0.40;;;;;;;7.10;80.78;100188.31;4974180;28;97643;-41
2022/01/09 11:25:29;;;;;;;1.95;0.55;;;;;;;7.01;80.87;100203.19;4974554;28;97817;-41
2022/01/09 11:28:15;;;;;;;2.78;0.50;;;;;;;6.91;81.73;100200.16;4974933;28;96447;-42
2022/01/09 11:31:04;;;;;;;2.58;0.75;;;;;;;6.62;81.97;100179.38;4973342;28;96733;-42
2022/01/09 11:34:05;;;;;;;4.47;0.50;;;;;;;6.66;82.02;100208.72;4974389;28;97495;-41
2022/01/09 11:36:41;;;;;;;2.08;0.40;;;;;;;6.57;81.34;100211.94;4973764;28;97934;-41